sensor_id;sensor_type;location;lat;lon;timestamp;P1;durP1;ratioP1;P2;durP2;ratioP2
22841;SDS011;11587;47.064;15.444;2023-04-28T00:00:08;0.10;;;0.10;;
22841;SDS011;11587;47.064;15.444;2023-04-28T00:02:35;0.20;;;0.20;;
22841;SDS011;11587;47.064;15.444;2023-04-28T00:05:01;0.20;;;0.20;;
22841;SDS011;11587;47.064;15.444;2023-04-28T00:07:27;0.20;;;0.20;;
22841;SDS011;11587;47.064;15.444;2023-04-28T00:09:53;0.20;;;0.20;;
22841;SDS011;11587;47.064;15.444;2023-04-28T00:12:20;0.10;;;0.10;;
22841;SDS011;11587;47.064;15.444;2023-04-28T00:14:47;0.20;;;0.20;;
22841;SDS011;11587;47.064;15.444;2023-04-28T00:17:13;0.10;;;0.10;;
22841;SDS011;11587;47.064;15.444;2023-04-28T00:19:39;0.20;;;0.20;;
22841;SDS011;11587;47.064;15.444;2023-04-28T00:22:05;0.10;;;0.10;;
22841;SDS011;11587;47.064;15.444;2023-04-28T00:24:31;0.20;;;0.20;;
22841;SDS011;11587;47.064;15.444;2023-04-28T00:26:57;0.10;;;0.10;;
22841;SDS011;11587;47.064;15.444;2023-04-28T00:29:24;0.20;;;0.20;;
22841;SDS011;11587;47.064;15.444;2023-04-28T00:31:50;0.20;;;0.20;;
22841;SDS011;11587;47.064;15.444;2023-04-28T00:34:16;0.10;;;0.10;;
22841;SDS011;11587;47.064;15.444;2023-04-28T00:36:42;0.20;;;0.20;;
22841;SDS011;11587;47.064;15.444;2023-04-28T00:39:08;0.10;;;0.10;;
22841;SDS011;11587;47.064;15.444;2023-04-28T00:41:34;0.15;;;0.15;;
22841;SDS011;11587;47.064;15.444;2023-04-28T00:44:00;0.20;;;0.20;;
22841;SDS011;11587;47.064;15.444;2023-04-28T00:46:28;0.20;;;0.20;;
22841;SDS011;11587;47.064;15.444;2023-04-28T00:48:55;0.10;;;0.10;;
22841;SDS011;11587;47.064;15.444;2023-04-28T00:51:21;0.13;;;0.13;;
22841;SDS011;11587;47.064;15.444;2023-04-28T00:53:47;0.20;;;0.20;;
22841;SDS011;11587;47.064;15.444;2023-04-28T00:56:13;0.10;;;0.10;;
22841;SDS011;11587;47.064;15.444;2023-04-28T00:58:40;0.20;;;0.20;;
22841;SDS011;11587;47.064;15.444;2023-04-28T01:01:08;0.20;;;0.20;;
22841;SDS011;11587;47.064;15.444;2023-04-28T01:03:36;0.20;;;0.20;;
22841;SDS011;11587;47.064;15.444;2023-04-28T01:06:05;0.20;;;0.20;;
22841;SDS011;11587;47.064;15.444;2023-04-28T01:08:33;0.20;;;0.20;;
22841;SDS011;11587;47.064;15.444;2023-04-28T01:10:59;0.20;;;0.20;;
22841;SDS011;11587;47.064;15.444;2023-04-28T01:13:26;0.20;;;0.20;;
22841;SDS011;11587;47.064;15.444;2023-04-28T01:15:52;0.20;;;0.20;;
22841;SDS011;11587;47.064;15.444;2023-04-28T01:18:18;0.20;;;0.20;;
22841;SDS011;11587;47.064;15.444;2023-04-28T01:20:44;0.20;;;0.20;;
22841;SDS011;11587;47.064;15.444;2023-04-28T01:23:14;0.10;;;0.10;;
22841;SDS011;11587;47.064;15.444;2023-04-28T01:25:41;0.20;;;0.20;;
22841;SDS011;11587;47.064;15.444;2023-04-28T01:28:07;0.20;;;0.20;;
22841;SDS011;11587;47.064;15.444;2023-04-28T01:30:33;0.10;;;0.10;;
22841;SDS011;11587;47.064;15.444;2023-04-28T01:33:00;0.20;;;0.20;;
22841;SDS011;11587;47.064;15.444;2023-04-28T01:35:26;0.20;;;0.20;;
22841;SDS011;11587;47.064;15.444;2023-04-28T01:37:52;0.20;;;0.20;;
22841;SDS011;11587;47.064;15.444;2023-04-28T01:40:18;0.20;;;0.20;;
22841;SDS011;11587;47.064;15.444;2023-04-28T01:42:44;0.20;;;0.20;;
22841;SDS011;11587;47.064;15.444;2023-04-28T01:45:10;0.20;;;0.20;;
22841;SDS011;11587;47.064;15.444;2023-04-28T01:47:37;0.20;;;0.20;;
22841;SDS011;11587;47.064;15.444;2023-04-28T01:50:03;0.20;;;0.20;;
22841;SDS011;11587;47.064;15.444;2023-04-28T01:52:30;0.20;;;0.20;;
22841;SDS011;11587;47.064;15.444;2023-04-28T01:54:56;0.20;;;0.20;;
22841;SDS011;11587;47.064;15.444;2023-04-28T01:57:22;0.20;;;0.20;;
22841;SDS011;11587;47.064;15.444;2023-04-28T01:59:48;0.20;;;0.20;;
22841;SDS011;11587;47.064;15.444;2023-04-28T02:02:14;0.20;;;0.20;;
22841;SDS011;11587;47.064;15.444;2023-04-28T02:04:40;0.20;;;0.20;;
22841;SDS011;11587;47.064;15.444;2023-04-28T02:07:06;0.20;;;0.20;;
22841;SDS011;11587;47.064;15.444;2023-04-28T02:09:32;0.20;;;0.20;;
22841;SDS011;11587;47.064;15.444;2023-04-28T02:11:58;0.20;;;0.20;;
22841;SDS011;11587;47.064;15.444;2023-04-28T02:14:26;0.20;;;0.20;;
22841;SDS011;11587;47.064;15.444;2023-04-28T02:16:52;0.20;;;0.20;;
22841;SDS011;11587;47.064;15.444;2023-04-28T02:19:18;0.30;;;0.30;;
22841;SDS011;11587;47.064;15.444;2023-04-28T02:21:44;0.20;;;0.20;;
22841;SDS011;11587;47.064;15.444;2023-04-28T02:24:10;0.40;;;0.40;;
22841;SDS011;11587;47.064;15.444;2023-04-28T02:26:36;0.30;;;0.30;;
22841;SDS011;11587;47.064;15.444;2023-04-28T02:29:02;0.30;;;0.30;;
22841;SDS011;11587;47.064;15.444;2023-04-28T02:31:28;0.40;;;0.40;;
22841;SDS011;11587;47.064;15.444;2023-04-28T02:33:55;0.30;;;0.30;;
22841;SDS011;11587;47.064;15.444;2023-04-28T02:36:21;0.40;;;0.40;;
22841;SDS011;11587;47.064;15.444;2023-04-28T02:38:47;0.40;;;0.40;;
22841;SDS011;11587;47.064;15.444;2023-04-28T02:41:13;0.20;;;0.20;;
22841;SDS011;11587;47.064;15.444;2023-04-28T02:43:39;0.20;;;0.20;;
22841;SDS011;11587;47.064;15.444;2023-04-28T02:46:06;0.20;;;0.20;;
22841;SDS011;11587;47.064;15.444;2023-04-28T02:48:32;0.20;;;0.20;;
22841;SDS011;11587;47.064;15.444;2023-04-28T02:50:59;0.20;;;0.20;;
22841;SDS011;11587;47.064;15.444;2023-04-28T02:53:25;0.20;;;0.20;;
22841;SDS011;11587;47.064;15.444;2023-04-28T02:55:52;0.20;;;0.20;;
22841;SDS011;11587;47.064;15.444;2023-04-28T02:58:18;0.20;;;0.20;;
22841;SDS011;11587;47.064;15.444;2023-04-28T03:00:44;0.20;;;0.20;;
22841;SDS011;11587;47.064;15.444;2023-04-28T03:03:11;0.20;;;0.20;;
22841;SDS011;11587;47.064;15.444;2023-04-28T03:05:37;0.20;;;0.20;;
22841;SDS011;11587;47.064;15.444;2023-04-28T03:08:12;0.20;;;0.20;;
22841;SDS011;11587;47.064;15.444;2023-04-28T03:10:47;0.20;;;0.20;;
22841;SDS011;11587;47.064;15.444;2023-04-28T03:13:13;0.20;;;0.20;;
22841;SDS011;11587;47.064;15.444;2023-04-28T03:15:39;0.20;;;0.20;;
22841;SDS011;11587;47.064;15.444;2023-04-28T03:18:05;0.20;;;0.20;;
22841;SDS011;11587;47.064;15.444;2023-04-28T03:20:31;0.20;;;0.20;;
22841;SDS011;11587;47.064;15.444;2023-04-28T03:22:57;0.20;;;0.20;;
22841;SDS011;11587;47.064;15.444;2023-04-28T03:25:26;0.20;;;0.20;;
22841;SDS011;11587;47.064;15.444;2023-04-28T03:27:52;0.20;;;0.20;;
22841;SDS011;11587;47.064;15.444;2023-04-28T03:30:18;0.20;;;0.20;;
22841;SDS011;11587;47.064;15.444;2023-04-28T03:32:45;0.20;;;0.20;;
22841;SDS011;11587;47.064;15.444;2023-04-28T03:35:11;0.20;;;0.20;;
22841;SDS011;11587;47.064;15.444;2023-04-28T03:37:37;0.20;;;0.20;;
22841;SDS011;11587;47.064;15.444;2023-04-28T03:40:03;0.20;;;0.20;;
22841;SDS011;11587;47.064;15.444;2023-04-28T03:42:30;0.20;;;0.20;;
22841;SDS011;11587;47.064;15.444;2023-04-28T03:44:56;0.20;;;0.20;;
22841;SDS011;11587;47.064;15.444;2023-04-28T03:47:22;0.20;;;0.20;;
22841;SDS011;11587;47.064;15.444;2023-04-28T03:49:48;0.20;;;0.20;;
22841;SDS011;11587;47.064;15.444;2023-04-28T03:52:14;0.20;;;0.20;;
22841;SDS011;11587;47.064;15.444;2023-04-28T03:54:40;0.20;;;0.20;;
22841;SDS011;11587;47.064;15.444;2023-04-28T03:57:06;0.20;;;0.20;;
22841;SDS011;11587;47.064;15.444;2023-04-28T03:59:32;0.20;;;0.20;;
22841;SDS011;11587;47.064;15.444;2023-04-28T04:01:58;0.20;;;0.20;;
22841;SDS011;11587;47.064;15.444;2023-04-28T04:04:24;0.20;;;0.20;;
22841;SDS011;11587;47.064;15.444;2023-04-28T04:06:51;0.20;;;0.20;;
22841;SDS011;11587;47.064;15.444;2023-04-28T04:09:17;0.20;;;0.20;;
22841;SDS011;11587;47.064;15.444;2023-04-28T04:11:43;0.40;;;0.40;;
22841;SDS011;11587;47.064;15.444;2023-04-28T04:14:09;0.50;;;0.50;;
22841;SDS011;11587;47.064;15.444;2023-04-28T04:16:35;0.40;;;0.40;;
22841;SDS011;11587;47.064;15.444;2023-04-28T04:19:01;0.30;;;0.30;;
22841;SDS011;11587;47.064;15.444;2023-04-28T04:21:27;0.38;;;0.38;;
22841;SDS011;11587;47.064;15.444;2023-04-28T04:23:53;0.40;;;0.40;;
22841;SDS011;11587;47.064;15.444;2023-04-28T04:26:19;0.30;;;0.30;;
22841;SDS011;11587;47.064;15.444;2023-04-28T04:28:45;0.40;;;0.40;;
22841;SDS011;11587;47.064;15.444;2023-04-28T04:31:11;0.30;;;0.30;;
22841;SDS011;11587;47.064;15.444;2023-04-28T04:33:37;0.20;;;0.20;;
22841;SDS011;11587;47.064;15.444;2023-04-28T04:36:04;0.20;;;0.20;;
22841;SDS011;11587;47.064;15.444;2023-04-28T04:38:30;0.20;;;0.20;;
22841;SDS011;11587;47.064;15.444;2023-04-28T04:40:56;0.20;;;0.20;;
22841;SDS011;11587;47.064;15.444;2023-04-28T04:43:22;0.20;;;0.20;;
22841;SDS011;11587;47.064;15.444;2023-04-28T04:45:48;0.20;;;0.20;;
22841;SDS011;11587;47.064;15.444;2023-04-28T04:48:14;0.20;;;0.20;;
22841;SDS011;11587;47.064;15.444;2023-04-28T04:50:40;0.20;;;0.20;;
22841;SDS011;11587;47.064;15.444;2023-04-28T04:53:07;0.15;;;0.15;;
22841;SDS011;11587;47.064;15.444;2023-04-28T04:55:33;0.20;;;0.20;;
22841;SDS011;11587;47.064;15.444;2023-04-28T04:57:59;0.20;;;0.20;;
22841;SDS011;11587;47.064;15.444;2023-04-28T05:00:26;0.20;;;0.20;;
22841;SDS011;11587;47.064;15.444;2023-04-28T05:02:52;0.20;;;0.20;;
22841;SDS011;11587;47.064;15.444;2023-04-28T05:05:18;0.20;;;0.20;;
22841;SDS011;11587;47.064;15.444;2023-04-28T05:07:44;0.20;;;0.20;;
22841;SDS011;11587;47.064;15.444;2023-04-28T05:10:10;0.20;;;0.20;;
22841;SDS011;11587;47.064;15.444;2023-04-28T05:12:37;0.20;;;0.20;;
22841;SDS011;11587;47.064;15.444;2023-04-28T05:15:06;0.20;;;0.20;;
22841;SDS011;11587;47.064;15.444;2023-04-28T05:17:32;0.20;;;0.20;;
22841;SDS011;11587;47.064;15.444;2023-04-28T05:19:58;0.20;;;0.20;;
22841;SDS011;11587;47.064;15.444;2023-04-28T05:22:24;0.20;;;0.20;;
22841;SDS011;11587;47.064;15.444;2023-04-28T05:24:51;0.20;;;0.20;;
22841;SDS011;11587;47.064;15.444;2023-04-28T05:27:17;0.20;;;0.20;;
22841;SDS011;11587;47.064;15.444;2023-04-28T05:29:43;0.20;;;0.20;;
22841;SDS011;11587;47.064;15.444;2023-04-28T05:32:10;0.20;;;0.20;;
22841;SDS011;11587;47.064;15.444;2023-04-28T05:34:36;0.20;;;0.20;;
22841;SDS011;11587;47.064;15.444;2023-04-28T05:37:02;0.20;;;0.20;;
22841;SDS011;11587;47.064;15.444;2023-04-28T05:39:28;0.20;;;0.20;;
22841;SDS011;11587;47.064;15.444;2023-04-28T05:41:54;0.20;;;0.20;;
22841;SDS011;11587;47.064;15.444;2023-04-28T05:44:22;0.20;;;0.20;;
22841;SDS011;11587;47.064;15.444;2023-04-28T05:46:48;0.20;;;0.20;;
22841;SDS011;11587;47.064;15.444;2023-04-28T05:49:14;0.20;;;0.20;;
22841;SDS011;11587;47.064;15.444;2023-04-28T05:51:40;0.20;;;0.20;;
22841;SDS011;11587;47.064;15.444;2023-04-28T05:54:07;0.20;;;0.20;;
22841;SDS011;11587;47.064;15.444;2023-04-28T05:56:33;0.20;;;0.20;;
22841;SDS011;11587;47.064;15.444;2023-04-28T05:58:59;0.10;;;0.10;;
22841;SDS011;11587;47.064;15.444;2023-04-28T06:01:29;0.10;;;0.10;;
22841;SDS011;11587;47.064;15.444;2023-04-28T06:03:55;0.10;;;0.10;;
22841;SDS011;11587;47.064;15.444;2023-04-28T06:06:23;0.20;;;0.20;;
22841;SDS011;11587;47.064;15.444;2023-04-28T06:08:49;0.20;;;0.20;;
22841;SDS011;11587;47.064;15.444;2023-04-28T06:11:15;0.20;;;0.20;;
22841;SDS011;11587;47.064;15.444;2023-04-28T06:13:43;0.20;;;0.20;;
22841;SDS011;11587;47.064;15.444;2023-04-28T06:16:09;0.10;;;0.10;;
22841;SDS011;11587;47.064;15.444;2023-04-28T06:18:35;0.20;;;0.20;;
22841;SDS011;11587;47.064;15.444;2023-04-28T06:21:01;0.20;;;0.20;;
22841;SDS011;11587;47.064;15.444;2023-04-28T06:23:27;0.20;;;0.20;;
22841;SDS011;11587;47.064;15.444;2023-04-28T06:25:53;0.15;;;0.15;;
22841;SDS011;11587;47.064;15.444;2023-04-28T06:28:20;0.10;;;0.10;;
22841;SDS011;11587;47.064;15.444;2023-04-28T06:30:46;0.13;;;0.13;;
22841;SDS011;11587;47.064;15.444;2023-04-28T06:33:12;0.10;;;0.10;;
22841;SDS011;11587;47.064;15.444;2023-04-28T06:35:38;0.10;;;0.10;;
22841;SDS011;11587;47.064;15.444;2023-04-28T06:38:04;0.20;;;0.20;;
22841;SDS011;11587;47.064;15.444;2023-04-28T06:40:31;0.10;;;0.10;;
22841;SDS011;11587;47.064;15.444;2023-04-28T06:42:57;0.20;;;0.20;;
22841;SDS011;11587;47.064;15.444;2023-04-28T06:45:23;0.20;;;0.20;;
22841;SDS011;11587;47.064;15.444;2023-04-28T06:47:49;0.13;;;0.13;;
22841;SDS011;11587;47.064;15.444;2023-04-28T06:50:15;0.10;;;0.10;;
22841;SDS011;11587;47.064;15.444;2023-04-28T06:52:41;0.10;;;0.10;;
22841;SDS011;11587;47.064;15.444;2023-04-28T06:55:07;0.20;;;0.20;;
22841;SDS011;11587;47.064;15.444;2023-04-28T06:57:34;0.20;;;0.20;;
22841;SDS011;11587;47.064;15.444;2023-04-28T07:00:01;0.20;;;0.20;;
22841;SDS011;11587;47.064;15.444;2023-04-28T07:02:28;0.20;;;0.20;;
22841;SDS011;11587;47.064;15.444;2023-04-28T07:04:54;0.20;;;0.20;;
22841;SDS011;11587;47.064;15.444;2023-04-28T07:07:20;0.30;;;0.30;;
22841;SDS011;11587;47.064;15.444;2023-04-28T07:09:46;0.20;;;0.20;;
22841;SDS011;11587;47.064;15.444;2023-04-28T07:12:12;0.20;;;0.20;;
22841;SDS011;11587;47.064;15.444;2023-04-28T07:14:39;0.20;;;0.20;;
22841;SDS011;11587;47.064;15.444;2023-04-28T07:17:05;0.20;;;0.20;;
22841;SDS011;11587;47.064;15.444;2023-04-28T07:19:31;0.20;;;0.20;;
22841;SDS011;11587;47.064;15.444;2023-04-28T07:21:57;0.20;;;0.20;;
22841;SDS011;11587;47.064;15.444;2023-04-28T07:24:23;0.20;;;0.20;;
22841;SDS011;11587;47.064;15.444;2023-04-28T07:26:51;0.20;;;0.20;;
22841;SDS011;11587;47.064;15.444;2023-04-28T07:29:17;0.20;;;0.20;;
22841;SDS011;11587;47.064;15.444;2023-04-28T07:31:43;0.20;;;0.20;;
22841;SDS011;11587;47.064;15.444;2023-04-28T07:34:09;0.20;;;0.20;;
22841;SDS011;11587;47.064;15.444;2023-04-28T07:36:35;0.20;;;0.20;;
22841;SDS011;11587;47.064;15.444;2023-04-28T07:39:01;0.10;;;0.10;;
22841;SDS011;11587;47.064;15.444;2023-04-28T07:41:27;0.20;;;0.20;;
22841;SDS011;11587;47.064;15.444;2023-04-28T07:43:54;0.20;;;0.20;;
22841;SDS011;11587;47.064;15.444;2023-04-28T07:46:20;0.20;;;0.20;;
22841;SDS011;11587;47.064;15.444;2023-04-28T07:48:46;0.20;;;0.20;;
22841;SDS011;11587;47.064;15.444;2023-04-28T07:51:12;0.20;;;0.20;;
22841;SDS011;11587;47.064;15.444;2023-04-28T07:53:38;0.10;;;0.10;;
22841;SDS011;11587;47.064;15.444;2023-04-28T07:56:04;0.10;;;0.10;;
22841;SDS011;11587;47.064;15.444;2023-04-28T07:58:31;0.10;;;0.10;;
22841;SDS011;11587;47.064;15.444;2023-04-28T08:00:57;0.10;;;0.10;;
22841;SDS011;11587;47.064;15.444;2023-04-28T08:03:23;0.10;;;0.10;;
22841;SDS011;11587;47.064;15.444;2023-04-28T08:05:49;0.15;;;0.15;;
22841;SDS011;11587;47.064;15.444;2023-04-28T08:08:15;0.10;;;0.10;;
22841;SDS011;11587;47.064;15.444;2023-04-28T08:10:42;0.10;;;0.10;;
22841;SDS011;11587;47.064;15.444;2023-04-28T08:13:09;0.10;;;0.10;;
22841;SDS011;11587;47.064;15.444;2023-04-28T08:15:35;0.10;;;0.10;;
22841;SDS011;11587;47.064;15.444;2023-04-28T08:18:01;0.10;;;0.10;;
22841;SDS011;11587;47.064;15.444;2023-04-28T08:20:27;0.10;;;0.10;;
22841;SDS011;11587;47.064;15.444;2023-04-28T08:22:54;0.10;;;0.10;;
22841;SDS011;11587;47.064;15.444;2023-04-28T08:25:20;0.10;;;0.10;;
22841;SDS011;11587;47.064;15.444;2023-04-28T08:27:46;0.10;;;0.10;;
22841;SDS011;11587;47.064;15.444;2023-04-28T08:30:12;0.17;;;0.17;;
22841;SDS011;11587;47.064;15.444;2023-04-28T08:32:38;0.10;;;0.10;;
22841;SDS011;11587;47.064;15.444;2023-04-28T08:35:05;0.10;;;0.10;;
22841;SDS011;11587;47.064;15.444;2023-04-28T08:37:31;0.10;;;0.10;;
22841;SDS011;11587;47.064;15.444;2023-04-28T08:39:58;0.20;;;0.20;;
22841;SDS011;11587;47.064;15.444;2023-04-28T08:42:30;0.10;;;0.10;;
22841;SDS011;11587;47.064;15.444;2023-04-28T08:44:57;0.10;;;0.10;;
22841;SDS011;11587;47.064;15.444;2023-04-28T08:47:35;0.20;;;0.20;;
22841;SDS011;11587;47.064;15.444;2023-04-28T08:50:12;0.10;;;0.10;;
22841;SDS011;11587;47.064;15.444;2023-04-28T08:52:38;0.20;;;0.20;;
22841;SDS011;11587;47.064;15.444;2023-04-28T08:55:06;0.20;;;0.20;;
22841;SDS011;11587;47.064;15.444;2023-04-28T09:00:05;0.20;;;0.20;;
22841;SDS011;11587;47.064;15.444;2023-04-28T09:02:31;0.10;;;0.10;;
22841;SDS011;11587;47.064;15.444;2023-04-28T09:04:57;0.10;;;0.10;;
22841;SDS011;11587;47.064;15.444;2023-04-28T09:07:23;0.20;;;0.20;;
22841;SDS011;11587;47.064;15.444;2023-04-28T09:09:50;0.10;;;0.10;;
22841;SDS011;11587;47.064;15.444;2023-04-28T09:12:36;0.10;;;0.10;;
22841;SDS011;11587;47.064;15.444;2023-04-28T09:15:02;0.10;;;0.10;;
22841;SDS011;11587;47.064;15.444;2023-04-28T09:17:33;0.10;;;0.10;;
22841;SDS011;11587;47.064;15.444;2023-04-28T09:22:47;0.10;;;0.10;;
22841;SDS011;11587;47.064;15.444;2023-04-28T09:25:14;0.10;;;0.10;;
22841;SDS011;11587;47.064;15.444;2023-04-28T09:27:40;0.10;;;0.10;;
22841;SDS011;11587;47.064;15.444;2023-04-28T09:30:06;0.10;;;0.10;;
22841;SDS011;11587;47.064;15.444;2023-04-28T09:32:34;0.13;;;0.13;;
22841;SDS011;11587;47.064;15.444;2023-04-28T09:35:00;0.10;;;0.10;;
22841;SDS011;11587;47.064;15.444;2023-04-28T09:37:29;0.10;;;0.10;;
22841;SDS011;11587;47.064;15.444;2023-04-28T09:39:56;0.10;;;0.10;;
22841;SDS011;11587;47.064;15.444;2023-04-28T09:45:03;0.10;;;0.10;;
22841;SDS011;11587;47.064;15.444;2023-04-28T09:47:30;0.10;;;0.10;;
22841;SDS011;11587;47.064;15.444;2023-04-28T09:49:58;0.10;;;0.10;;
22841;SDS011;11587;47.064;15.444;2023-04-28T09:52:25;0.10;;;0.10;;
22841;SDS011;11587;47.064;15.444;2023-04-28T09:54:51;0.10;;;0.10;;
22841;SDS011;11587;47.064;15.444;2023-04-28T09:57:18;0.10;;;0.10;;
22841;SDS011;11587;47.064;15.444;2023-04-28T09:59:51;0.10;;;0.10;;
22841;SDS011;11587;47.064;15.444;2023-04-28T10:02:18;0.10;;;0.10;;
22841;SDS011;11587;47.064;15.444;2023-04-28T10:04:48;0.10;;;0.10;;
22841;SDS011;11587;47.064;15.444;2023-04-28T10:07:15;0.10;;;0.10;;
22841;SDS011;11587;47.064;15.444;2023-04-28T10:09:42;0.10;;;0.10;;
22841;SDS011;11587;47.064;15.444;2023-04-28T10:12:11;0.10;;;0.10;;
22841;SDS011;11587;47.064;15.444;2023-04-28T10:14:38;0.10;;;0.10;;
22841;SDS011;11587;47.064;15.444;2023-04-28T10:17:04;0.10;;;0.10;;
22841;SDS011;11587;47.064;15.444;2023-04-28T10:19:33;0.10;;;0.10;;
22841;SDS011;11587;47.064;15.444;2023-04-28T10:25:11;0.10;;;0.10;;
22841;SDS011;11587;47.064;15.444;2023-04-28T10:27:32;0.10;;;0.10;;
22841;SDS011;11587;47.064;15.444;2023-04-28T10:38:02;0.10;;;0.10;;
22841;SDS011;11587;47.064;15.444;2023-04-28T10:40:30;0.10;;;0.10;;
22841;SDS011;11587;47.064;15.444;2023-04-28T10:42:57;0.10;;;0.10;;
22841;SDS011;11587;47.064;15.444;2023-04-28T10:48:07;0.10;;;0.10;;
22841;SDS011;11587;47.064;15.444;2023-04-28T10:50:33;0.10;;;0.10;;
22841;SDS011;11587;47.064;15.444;2023-04-28T10:53:01;0.10;;;0.10;;
22841;SDS011;11587;47.064;15.444;2023-04-28T10:55:34;0.10;;;0.10;;
22841;SDS011;11587;47.064;15.444;2023-04-28T11:00:42;0.10;;;0.10;;
22841;SDS011;11587;47.064;15.444;2023-04-28T11:08:41;0.10;;;0.10;;
22841;SDS011;11587;47.064;15.444;2023-04-28T11:11:17;0.10;;;0.10;;
22841;SDS011;11587;47.064;15.444;2023-04-28T11:13:43;0.10;;;0.10;;
22841;SDS011;11587;47.064;15.444;2023-04-28T11:16:15;0.10;;;0.10;;
22841;SDS011;11587;47.064;15.444;2023-04-28T11:18:50;0.10;;;0.10;;
22841;SDS011;11587;47.064;15.444;2023-04-28T11:21:20;0.10;;;0.10;;
22841;SDS011;11587;47.064;15.444;2023-04-28T11:23:46;0.10;;;0.10;;
22841;SDS011;11587;47.064;15.444;2023-04-28T11:26:13;0.10;;;0.10;;
22841;SDS011;11587;47.064;15.444;2023-04-28T11:28:48;0.10;;;0.10;;
22841;SDS011;11587;47.064;15.444;2023-04-28T11:31:15;0.10;;;0.10;;
22841;SDS011;11587;47.064;15.444;2023-04-28T11:33:52;0.00;;;0.00;;
22841;SDS011;11587;47.064;15.444;2023-04-28T11:36:23;0.10;;;0.10;;
22841;SDS011;11587;47.064;15.444;2023-04-28T11:38:49;0.00;;;0.00;;
22841;SDS011;11587;47.064;15.444;2023-04-28T11:41:15;0.00;;;0.00;;
22841;SDS011;11587;47.064;15.444;2023-04-28T11:43:41;0.10;;;0.10;;
22841;SDS011;11587;47.064;15.444;2023-04-28T11:46:07;0.00;;;0.00;;
22841;SDS011;11587;47.064;15.444;2023-04-28T11:48:34;0.00;;;0.00;;
22841;SDS011;11587;47.064;15.444;2023-04-28T11:51:03;0.00;;;0.00;;
22841;SDS011;11587;47.064;15.444;2023-04-28T11:53:42;0.00;;;0.00;;
22841;SDS011;11587;47.064;15.444;2023-04-28T11:56:08;0.00;;;0.00;;
22841;SDS011;11587;47.064;15.444;2023-04-28T11:58:36;0.10;;;0.10;;
22841;SDS011;11587;47.064;15.444;2023-04-28T12:01:09;0.10;;;0.10;;
22841;SDS011;11587;47.064;15.444;2023-04-28T12:03:44;0.00;;;0.00;;
22841;SDS011;11587;47.064;15.444;2023-04-28T12:06:11;0.00;;;0.00;;
22841;SDS011;11587;47.064;15.444;2023-04-28T12:08:42;0.00;;;0.00;;
22841;SDS011;11587;47.064;15.444;2023-04-28T12:11:09;0.00;;;0.00;;
22841;SDS011;11587;47.064;15.444;2023-04-28T12:13:35;0.00;;;0.00;;
22841;SDS011;11587;47.064;15.444;2023-04-28T12:16:02;0.00;;;0.00;;
22841;SDS011;11587;47.064;15.444;2023-04-28T12:18:35;0.00;;;0.00;;
22841;SDS011;11587;47.064;15.444;2023-04-28T12:21:01;0.00;;;0.00;;
22841;SDS011;11587;47.064;15.444;2023-04-28T12:23:36;0.00;;;0.00;;
22841;SDS011;11587;47.064;15.444;2023-04-28T12:26:03;0.08;;;0.08;;
22841;SDS011;11587;47.064;15.444;2023-04-28T12:28:39;0.00;;;0.00;;
22841;SDS011;11587;47.064;15.444;2023-04-28T12:31:08;0.10;;;0.10;;
22841;SDS011;11587;47.064;15.444;2023-04-28T12:33:35;0.10;;;0.10;;
22841;SDS011;11587;47.064;15.444;2023-04-28T12:36:04;0.10;;;0.10;;
22841;SDS011;11587;47.064;15.444;2023-04-28T12:38:31;0.10;;;0.10;;
22841;SDS011;11587;47.064;15.444;2023-04-28T12:40:57;0.10;;;0.10;;
22841;SDS011;11587;47.064;15.444;2023-04-28T12:43:24;0.10;;;0.10;;
22841;SDS011;11587;47.064;15.444;2023-04-28T12:45:53;0.10;;;0.10;;
22841;SDS011;11587;47.064;15.444;2023-04-28T12:48:20;0.10;;;0.10;;
22841;SDS011;11587;47.064;15.444;2023-04-28T12:50:49;0.10;;;0.10;;
22841;SDS011;11587;47.064;15.444;2023-04-28T12:53:15;0.10;;;0.10;;
22841;SDS011;11587;47.064;15.444;2023-04-28T12:55:41;0.10;;;0.10;;
22841;SDS011;11587;47.064;15.444;2023-04-28T12:58:07;0.10;;;0.10;;
22841;SDS011;11587;47.064;15.444;2023-04-28T13:00:33;0.10;;;0.10;;
22841;SDS011;11587;47.064;15.444;2023-04-28T13:02:59;0.10;;;0.10;;
22841;SDS011;11587;47.064;15.444;2023-04-28T13:05:25;0.00;;;0.00;;
22841;SDS011;11587;47.064;15.444;2023-04-28T13:07:52;0.10;;;0.10;;
22841;SDS011;11587;47.064;15.444;2023-04-28T13:10:18;0.10;;;0.10;;
22841;SDS011;11587;47.064;15.444;2023-04-28T13:12:47;0.10;;;0.10;;
22841;SDS011;11587;47.064;15.444;2023-04-28T13:15:13;0.10;;;0.10;;
22841;SDS011;11587;47.064;15.444;2023-04-28T13:17:39;0.10;;;0.10;;
22841;SDS011;11587;47.064;15.444;2023-04-28T13:20:06;0.10;;;0.10;;
22841;SDS011;11587;47.064;15.444;2023-04-28T13:22:32;0.10;;;0.10;;
22841;SDS011;11587;47.064;15.444;2023-04-28T13:24:58;0.10;;;0.10;;
22841;SDS011;11587;47.064;15.444;2023-04-28T13:27:24;0.10;;;0.10;;
22841;SDS011;11587;47.064;15.444;2023-04-28T13:29:50;0.10;;;0.10;;
22841;SDS011;11587;47.064;15.444;2023-04-28T13:32:16;0.10;;;0.10;;
22841;SDS011;11587;47.064;15.444;2023-04-28T13:34:42;0.10;;;0.10;;
22841;SDS011;11587;47.064;15.444;2023-04-28T13:37:08;0.10;;;0.10;;
22841;SDS011;11587;47.064;15.444;2023-04-28T13:39:35;0.13;;;0.13;;
22841;SDS011;11587;47.064;15.444;2023-04-28T13:42:01;0.10;;;0.10;;
22841;SDS011;11587;47.064;15.444;2023-04-28T13:44:27;0.10;;;0.10;;
22841;SDS011;11587;47.064;15.444;2023-04-28T13:46:53;0.10;;;0.10;;
22841;SDS011;11587;47.064;15.444;2023-04-28T13:49:19;0.10;;;0.10;;
22841;SDS011;11587;47.064;15.444;2023-04-28T13:51:46;0.10;;;0.10;;
22841;SDS011;11587;47.064;15.444;2023-04-28T13:54:12;0.17;;;0.17;;
22841;SDS011;11587;47.064;15.444;2023-04-28T13:56:38;0.10;;;0.10;;
22841;SDS011;11587;47.064;15.444;2023-04-28T13:59:05;0.10;;;0.10;;
22841;SDS011;11587;47.064;15.444;2023-04-28T14:01:31;0.10;;;0.10;;
22841;SDS011;11587;47.064;15.444;2023-04-28T14:03:57;0.20;;;0.20;;
22841;SDS011;11587;47.064;15.444;2023-04-28T14:06:23;0.10;;;0.10;;
22841;SDS011;11587;47.064;15.444;2023-04-28T14:08:50;0.15;;;0.15;;
22841;SDS011;11587;47.064;15.444;2023-04-28T14:11:16;0.20;;;0.20;;
22841;SDS011;11587;47.064;15.444;2023-04-28T14:13:42;0.20;;;0.20;;
22841;SDS011;11587;47.064;15.444;2023-04-28T14:16:08;0.20;;;0.20;;
22841;SDS011;11587;47.064;15.444;2023-04-28T14:18:34;0.10;;;0.10;;
22841;SDS011;11587;47.064;15.444;2023-04-28T14:21:00;0.10;;;0.10;;
22841;SDS011;11587;47.064;15.444;2023-04-28T14:23:28;0.10;;;0.10;;
22841;SDS011;11587;47.064;15.444;2023-04-28T14:25:54;0.20;;;0.20;;
22841;SDS011;11587;47.064;15.444;2023-04-28T14:28:21;0.10;;;0.10;;
22841;SDS011;11587;47.064;15.444;2023-04-28T14:30:48;0.20;;;0.20;;
22841;SDS011;11587;47.064;15.444;2023-04-28T14:33:14;0.10;;;0.10;;
22841;SDS011;11587;47.064;15.444;2023-04-28T14:35:40;0.20;;;0.20;;
22841;SDS011;11587;47.064;15.444;2023-04-28T14:38:06;0.20;;;0.20;;
22841;SDS011;11587;47.064;15.444;2023-04-28T14:40:32;0.20;;;0.20;;
22841;SDS011;11587;47.064;15.444;2023-04-28T14:42:58;0.20;;;0.20;;
22841;SDS011;11587;47.064;15.444;2023-04-28T14:45:25;0.10;;;0.10;;
22841;SDS011;11587;47.064;15.444;2023-04-28T14:47:51;0.20;;;0.20;;
22841;SDS011;11587;47.064;15.444;2023-04-28T14:50:18;0.20;;;0.20;;
22841;SDS011;11587;47.064;15.444;2023-04-28T14:52:44;0.10;;;0.10;;
22841;SDS011;11587;47.064;15.444;2023-04-28T14:55:10;0.17;;;0.17;;
22841;SDS011;11587;47.064;15.444;2023-04-28T14:57:37;0.20;;;0.20;;
22841;SDS011;11587;47.064;15.444;2023-04-28T15:00:05;0.10;;;0.10;;